createdAt,value
2023-04-22T00:00:09.710Z,14.51
2023-04-22T00:02:39.870Z,14.63
2023-04-22T00:05:08.660Z,14.57
2023-04-22T00:07:36.758Z,14.19
2023-04-22T00:10:05.079Z,14.29
2023-04-22T00:12:32.956Z,14.35
2023-04-22T00:15:00.861Z,14.18
2023-04-22T00:17:28.882Z,14.11
2023-04-22T00:19:58.137Z,13.96
2023-04-22T00:22:26.055Z,14.01
2023-04-22T00:24:53.843Z,13.91
2023-04-22T00:27:21.585Z,13.92
2023-04-22T00:29:49.512Z,13.74
2023-04-22T00:32:17.381Z,13.51
2023-04-22T00:34:45.243Z,13.60
2023-04-22T00:37:14.545Z,13.46
2023-04-22T00:39:42.589Z,13.43
2023-04-22T00:42:10.794Z,13.41
2023-04-22T00:44:38.928Z,13.22
2023-04-22T00:47:06.992Z,13.25
2023-04-22T00:49:36.192Z,13.23
2023-04-22T00:52:04.089Z,13.24
2023-04-22T00:54:36.064Z,13.20
2023-04-22T00:57:04.245Z,13.25
2023-04-22T00:59:32.062Z,12.59
2023-04-22T01:02:01.305Z,13.17
2023-04-22T01:04:29.385Z,13.12
2023-04-22T01:06:57.329Z,13.15
2023-04-22T01:09:25.547Z,12.88
2023-04-22T01:11:56.233Z,12.66
2023-04-22T01:14:24.742Z,12.59
2023-04-22T01:16:53.932Z,12.40
2023-04-22T01:19:21.966Z,12.31
2023-04-22T01:21:52.218Z,12.04
2023-04-22T01:24:21.820Z,12.07
2023-04-22T01:26:49.996Z,12.17
2023-04-22T01:29:17.787Z,12.23
2023-04-22T01:31:45.721Z,12.13
2023-04-22T01:34:13.708Z,12.08
2023-04-22T01:36:41.490Z,11.63
2023-04-22T01:39:09.302Z,12.03
2023-04-22T01:41:38.598Z,11.96
2023-04-22T01:44:07.259Z,12.02
2023-04-22T01:46:35.732Z,11.90
2023-04-22T01:49:03.720Z,11.93
2023-04-22T01:51:31.706Z,11.91
2023-04-22T01:53:59.728Z,11.74
2023-04-22T01:56:27.986Z,11.71
2023-04-22T01:58:58.057Z,11.62
2023-04-22T02:01:25.967Z,11.64
2023-04-22T02:03:53.802Z,11.45
2023-04-22T02:06:21.645Z,11.30
2023-04-22T02:08:49.436Z,11.32
2023-04-22T02:11:17.256Z,11.40
2023-04-22T02:13:45.031Z,11.30
2023-04-22T02:16:14.202Z,11.24
2023-04-22T02:18:42.860Z,11.20
2023-04-22T02:21:10.675Z,11.15
2023-04-22T02:23:41.470Z,11.04
2023-04-22T02:26:09.441Z,11.05
2023-04-22T02:28:37.506Z,10.96
2023-04-22T02:31:05.419Z,10.90
2023-04-22T02:33:34.607Z,11.01
2023-04-22T02:36:02.370Z,11.03
2023-04-22T02:38:30.611Z,11.06
2023-04-22T02:40:58.450Z,10.81
2023-04-22T02:43:26.828Z,10.83
2023-04-22T02:45:54.645Z,10.84
2023-04-22T02:48:22.671Z,10.80
2023-04-22T02:50:51.968Z,10.80
2023-04-22T02:53:19.796Z,10.78
2023-04-22T02:55:47.771Z,10.83
2023-04-22T02:58:15.581Z,10.30
2023-04-22T03:00:43.942Z,10.75
2023-04-22T03:03:11.928Z,10.62
2023-04-22T03:05:39.868Z,10.63
2023-04-22T03:08:09.097Z,10.45
2023-04-22T03:10:37.555Z,10.36
2023-04-22T03:13:05.363Z,10.35
2023-04-22T03:15:33.257Z,10.23
2023-04-22T03:18:01.150Z,9.88
2023-04-22T03:20:29.699Z,10.12
2023-04-22T03:22:57.477Z,10.14
2023-04-22T03:25:29.004Z,10.00
2023-04-22T03:27:58.336Z,9.93
2023-04-22T03:30:26.687Z,9.98
2023-04-22T03:32:54.829Z,9.96
2023-04-22T03:35:27.100Z,9.81
2023-04-22T03:37:57.194Z,9.83
2023-04-22T03:40:32.057Z,9.87
2023-04-22T03:43:01.459Z,9.80
2023-04-22T03:45:30.165Z,9.86
2023-04-22T03:48:35.196Z,9.88
2023-04-22T03:51:06.826Z,9.97
2023-04-22T03:53:37.353Z,9.98
2023-04-22T03:56:07.407Z,10.00
2023-04-22T03:58:39.408Z,10.05
2023-04-22T04:01:09.351Z,10.01
2023-04-22T04:03:38.132Z,9.99
2023-04-22T04:06:07.845Z,10.25
2023-04-22T04:08:35.652Z,10.31
2023-04-22T04:11:03.516Z,10.26
2023-04-22T04:13:33.211Z,10.13
2023-04-22T04:16:23.270Z,10.23
2023-04-22T04:18:57.621Z,10.13
2023-04-22T04:21:27.949Z,10.27
2023-04-22T04:23:56.982Z,10.36
2023-04-22T04:26:28.785Z,10.48
2023-04-22T04:29:06.722Z,10.50
2023-04-22T04:31:35.368Z,10.50
2023-04-22T04:34:04.200Z,10.37
2023-04-22T04:36:32.866Z,10.28
2023-04-22T04:39:12.589Z,10.73
2023-04-22T04:41:41.144Z,11.10
2023-04-22T04:44:11.198Z,11.20
2023-04-22T04:46:40.860Z,11.41
2023-04-22T04:49:12.626Z,11.31
2023-04-22T04:51:56.666Z,11.64
2023-04-22T04:54:24.716Z,11.75
2023-04-22T04:56:52.689Z,11.57
2023-04-22T04:59:22.178Z,11.59
2023-04-22T05:01:50.548Z,11.70
2023-04-22T05:04:18.821Z,11.74
2023-04-22T05:06:46.772Z,11.77
2023-04-22T05:09:15.150Z,11.90
2023-04-22T05:11:44.588Z,11.85
2023-04-22T05:14:17.547Z,11.74
2023-04-22T05:16:48.581Z,12.01
2023-04-22T05:19:16.762Z,12.06
2023-04-22T05:21:45.547Z,12.21
2023-04-22T05:24:13.446Z,12.39
2023-04-22T05:26:41.598Z,12.52
2023-04-22T05:29:15.750Z,12.48
2023-04-22T05:31:43.975Z,12.76
2023-04-22T05:34:13.209Z,12.83
2023-04-22T05:36:41.459Z,12.98
2023-04-22T05:39:09.725Z,12.55
2023-04-22T05:41:37.631Z,13.05
2023-04-22T05:44:09.261Z,13.09
2023-04-22T05:46:37.316Z,12.97
2023-04-22T05:49:05.424Z,13.17
2023-04-22T05:52:00.755Z,13.26
2023-04-22T05:54:35.956Z,13.44
2023-04-22T05:57:04.771Z,13.56
2023-04-22T05:59:32.853Z,13.63
2023-04-22T06:02:00.956Z,13.81
2023-04-22T06:04:29.190Z,13.87
2023-04-22T06:06:57.654Z,14.01
2023-04-22T06:09:26.908Z,14.13
2023-04-22T06:11:54.764Z,14.16
2023-04-22T06:14:23.103Z,14.17
2023-04-22T06:16:52.697Z,14.41
2023-04-22T06:19:20.848Z,14.53
2023-04-22T06:21:48.673Z,14.61
2023-04-22T06:24:17.406Z,14.70
2023-04-22T06:26:46.643Z,14.78
2023-04-22T06:29:15.238Z,14.87
2023-04-22T06:31:43.816Z,14.94
2023-04-22T06:34:11.714Z,15.05
2023-04-22T06:36:40.243Z,15.10
2023-04-22T06:39:10.866Z,15.23
2023-04-22T06:41:46.146Z,15.00
2023-04-22T06:44:34.220Z,15.44
2023-04-22T06:47:24.317Z,15.62
2023-04-22T06:50:01.277Z,15.39
2023-04-22T06:52:37.823Z,15.76
2023-04-22T06:55:06.397Z,15.99
2023-04-22T06:57:35.570Z,16.14
2023-04-22T07:00:04.332Z,16.28
2023-04-22T07:02:32.711Z,15.64
2023-04-22T07:05:01.083Z,16.90
2023-04-22T07:07:29.102Z,16.75
2023-04-22T07:09:56.952Z,16.67
2023-04-22T07:12:28.302Z,17.00
2023-04-22T07:14:57.682Z,16.83
2023-04-22T07:17:25.452Z,17.06
2023-04-22T07:19:53.431Z,16.89
2023-04-22T07:22:21.286Z,16.58
2023-04-22T07:24:49.177Z,17.05
2023-04-22T07:27:17.229Z,17.02
2023-04-22T07:29:45.007Z,17.06
2023-04-22T07:32:15.310Z,16.93
2023-04-22T07:34:43.091Z,17.13
2023-04-22T07:37:11.030Z,17.30
2023-04-22T07:39:39.140Z,17.42
2023-04-22T07:42:07.305Z,17.51
2023-04-22T07:44:36.502Z,17.59
2023-04-22T07:47:07.669Z,17.68
2023-04-22T07:49:37.009Z,17.61
2023-04-22T07:52:05.017Z,17.57
2023-04-22T07:54:32.813Z,17.91
2023-04-22T07:57:01.638Z,17.77
2023-04-22T07:59:29.505Z,17.91
2023-04-22T08:01:57.432Z,17.96
2023-04-22T08:04:25.595Z,18.12
2023-04-22T08:06:55.871Z,18.37
2023-04-22T08:09:23.683Z,18.50
2023-04-22T08:11:53.704Z,18.66
2023-04-22T08:14:21.491Z,18.70
2023-04-22T08:16:49.303Z,18.53
2023-04-22T08:19:17.089Z,18.95
2023-04-22T08:21:44.905Z,19.04
2023-04-22T08:24:14.163Z,19.21
2023-04-22T08:26:42.329Z,19.09
2023-04-22T08:29:10.542Z,19.36
2023-04-22T08:31:38.344Z,19.39
2023-04-22T08:34:06.257Z,19.37
2023-04-22T08:36:34.128Z,19.52
2023-04-22T08:39:02.240Z,19.44
2023-04-22T08:41:34.737Z,19.46
2023-04-22T08:44:02.817Z,19.73
2023-04-22T08:46:32.251Z,19.68
2023-04-22T08:49:03.652Z,19.68
2023-04-22T08:51:33.455Z,19.84
2023-04-22T08:54:01.533Z,20.02
2023-04-22T08:56:31.430Z,19.87
2023-04-22T08:58:59.742Z,20.28
2023-04-22T09:01:29.588Z,20.41
2023-04-22T09:04:00.741Z,20.47
2023-04-22T09:06:28.902Z,20.44
2023-04-22T09:08:58.933Z,20.56
2023-04-22T09:11:28.594Z,20.61
2023-04-22T09:13:58.024Z,20.43
2023-04-22T09:16:25.911Z,20.71
2023-04-22T09:18:53.680Z,20.36
2023-04-22T09:21:21.525Z,20.83
2023-04-22T09:23:51.609Z,20.93
2023-04-22T09:26:20.833Z,20.80
2023-04-22T09:28:52.328Z,20.61
2023-04-22T09:31:21.751Z,20.78
2023-04-22T09:33:51.794Z,20.73
2023-04-22T09:36:24.154Z,20.82
2023-04-22T09:38:55.879Z,20.94
2023-04-22T09:41:30.351Z,21.17
2023-04-22T09:43:59.177Z,21.39
2023-04-22T09:46:30.116Z,21.31
2023-04-22T09:48:59.775Z,21.43
2023-04-22T09:51:29.114Z,21.42
2023-04-22T09:54:04.147Z,21.45
2023-04-22T09:56:43.179Z,21.65
2023-04-22T09:59:11.148Z,21.76
2023-04-22T10:01:41.756Z,21.82
2023-04-22T10:04:11.296Z,21.81
2023-04-22T10:06:39.311Z,21.79
2023-04-22T10:09:09.419Z,21.98
2023-04-22T10:11:38.454Z,22.19
2023-04-22T10:14:06.539Z,22.28
2023-04-22T10:16:36.865Z,22.21
2023-04-22T10:19:08.469Z,22.06
2023-04-22T10:21:36.719Z,22.22
2023-04-22T10:24:05.283Z,21.95
2023-04-22T10:26:41.131Z,22.11
2023-04-22T10:29:10.812Z,22.17
2023-04-22T10:31:39.651Z,22.09
2023-04-22T10:34:14.106Z,22.30
2023-04-22T10:36:59.563Z,22.49
2023-04-22T10:39:28.860Z,22.42
2023-04-22T10:42:10.266Z,22.29
2023-04-22T10:44:51.950Z,22.20
2023-04-22T10:47:27.421Z,22.36
2023-04-22T10:52:51.788Z,22.30
2023-04-22T10:55:21.342Z,22.41
2023-04-22T10:57:50.977Z,22.45
2023-04-22T11:00:35.285Z,22.54
2023-04-22T11:03:12.486Z,22.47
2023-04-22T11:05:41.643Z,22.46
2023-04-22T11:08:20.610Z,22.13
2023-04-22T11:10:50.703Z,22.41
2023-04-22T11:13:21.027Z,22.54
2023-04-22T11:15:50.831Z,22.71
2023-04-22T11:18:21.406Z,22.78
2023-04-22T11:20:50.928Z,22.76
2023-04-22T11:23:21.922Z,22.54
2023-04-22T11:25:54.754Z,22.61
2023-04-22T11:28:23.368Z,22.78
2023-04-22T11:30:51.829Z,22.77
2023-04-22T11:33:20.943Z,22.61
2023-04-22T11:35:50.503Z,22.68
2023-04-22T11:38:18.362Z,22.67
2023-04-22T11:40:48.199Z,22.70
2023-04-22T11:43:18.550Z,23.02
2023-04-22T11:45:46.592Z,22.94
2023-04-22T11:48:15.712Z,22.81
2023-04-22T11:50:44.791Z,22.56
2023-04-22T11:53:17.624Z,22.95
2023-04-22T11:55:50.826Z,23.20
2023-04-22T11:58:24.904Z,23.55
2023-04-22T12:00:54.135Z,23.66
2023-04-22T12:03:24.072Z,23.63
2023-04-22T12:05:54.419Z,23.81
2023-04-22T12:08:24.677Z,23.72
2023-04-22T12:10:55.900Z,23.57
2023-04-22T12:13:25.813Z,23.60
2023-04-22T12:15:56.684Z,23.48
2023-04-22T12:18:31.624Z,23.09
2023-04-22T12:21:09.234Z,23.22
2023-04-22T12:23:42.584Z,23.23
2023-04-22T12:26:12.942Z,23.24
2023-04-22T12:28:42.434Z,23.61
2023-04-22T12:31:10.871Z,23.46
2023-04-22T12:33:39.795Z,23.40
2023-04-22T12:36:08.042Z,23.35
2023-04-22T12:38:36.290Z,23.11
2023-04-22T12:41:04.743Z,23.08
2023-04-22T12:43:36.717Z,22.95
2023-04-22T12:46:05.632Z,22.94
2023-04-22T12:48:34.142Z,23.09
2023-04-22T12:51:01.954Z,23.24
2023-04-22T12:53:30.142Z,23.05
2023-04-22T12:55:58.423Z,22.50
2023-04-22T12:58:27.160Z,23.14
2023-04-22T13:00:56.320Z,23.34
2023-04-22T13:03:24.456Z,23.54
2023-04-22T13:05:53.231Z,23.70
2023-04-22T13:08:21.194Z,23.81
2023-04-22T13:10:49.196Z,23.70
2023-04-22T13:13:18.849Z,23.78
2023-04-22T13:15:47.836Z,23.60
2023-04-22T13:18:17.554Z,23.57
2023-04-22T13:20:45.458Z,23.56
2023-04-22T13:23:14.809Z,23.24
2023-04-22T13:25:42.702Z,23.27
2023-04-22T13:28:11.437Z,23.15
2023-04-22T13:30:39.812Z,22.90
2023-04-22T13:33:08.182Z,22.95
2023-04-22T13:35:37.547Z,22.53
2023-04-22T13:38:07.159Z,22.49
2023-04-22T13:40:35.070Z,22.60
2023-04-22T13:43:02.964Z,22.91
2023-04-22T13:45:31.031Z,23.20
2023-04-22T13:47:58.993Z,23.19
2023-04-22T13:50:26.793Z,23.25
2023-04-22T13:52:56.499Z,23.35
2023-04-22T13:55:24.329Z,23.54
2023-04-22T13:57:52.502Z,23.58
2023-04-22T14:00:20.883Z,23.61
2023-04-22T14:02:49.498Z,23.71
2023-04-22T14:05:17.931Z,23.78
2023-04-22T14:07:46.153Z,23.57
2023-04-22T14:10:16.313Z,23.83
2023-04-22T14:12:46.028Z,23.85
2023-04-22T14:15:14.720Z,23.59
2023-04-22T14:17:43.233Z,23.75
2023-04-22T14:20:11.847Z,23.79
2023-04-22T14:22:39.603Z,23.59
2023-04-22T14:25:08.520Z,23.59
2023-04-22T14:27:37.725Z,23.88
2023-04-22T14:30:08.315Z,23.72
2023-04-22T14:32:36.811Z,23.85
2023-04-22T14:35:05.034Z,23.78
2023-04-22T14:37:32.996Z,23.58
2023-04-22T14:40:00.998Z,23.89
2023-04-22T14:42:29.479Z,23.82
2023-04-22T14:44:58.778Z,23.50
2023-04-22T14:47:26.941Z,23.10
2023-04-22T14:49:54.789Z,23.55
2023-04-22T14:52:22.703Z,23.67
2023-04-22T14:54:51.917Z,23.48
2023-04-22T14:57:20.045Z,23.28
2023-04-22T14:59:47.852Z,23.11
2023-04-22T15:02:17.258Z,22.97
2023-04-22T15:04:45.322Z,22.88
2023-04-22T15:07:13.144Z,23.06
2023-04-22T15:09:41.331Z,22.98
2023-04-22T15:12:09.491Z,23.00
2023-04-22T15:14:37.563Z,23.00
2023-04-22T15:17:06.318Z,22.62
2023-04-22T15:19:35.569Z,23.14
2023-04-22T15:22:03.858Z,23.03
2023-04-22T15:24:31.703Z,22.95
2023-04-22T15:27:01.297Z,22.92
2023-04-22T15:29:29.525Z,22.86
2023-04-22T15:31:57.842Z,22.82
2023-04-22T15:34:26.155Z,22.80
2023-04-22T15:36:55.378Z,22.85
2023-04-22T15:39:25.132Z,23.02
2023-04-22T15:41:52.899Z,23.13
2023-04-22T15:44:20.692Z,23.02
2023-04-22T15:46:48.552Z,22.92
2023-04-22T15:49:16.641Z,22.91
2023-04-22T15:51:44.534Z,22.84
2023-04-22T15:54:14.080Z,22.85
2023-04-22T15:56:41.982Z,22.85
2023-04-22T15:59:09.917Z,22.97
2023-04-22T16:01:40.471Z,23.04
2023-04-22T16:04:08.887Z,22.92
2023-04-22T16:06:38.100Z,22.68
2023-04-22T16:09:06.018Z,22.20
2023-04-22T16:11:35.214Z,22.46
2023-04-22T16:14:03.124Z,22.78
2023-04-22T16:16:32.338Z,22.73
2023-04-22T16:19:00.240Z,22.75
2023-04-22T16:21:28.629Z,22.69
2023-04-22T16:23:56.490Z,22.70
2023-04-22T16:26:24.338Z,22.50
2023-04-22T16:28:54.832Z,22.58
2023-04-22T16:31:23.665Z,22.45
2023-04-22T16:33:52.163Z,22.44
2023-04-22T16:36:20.160Z,22.37
2023-04-22T16:38:47.989Z,22.20
2023-04-22T16:41:15.968Z,21.91
2023-04-22T16:43:43.813Z,22.16
2023-04-22T16:46:13.102Z,22.16
2023-04-22T16:48:40.984Z,22.18
2023-04-22T16:51:08.861Z,22.02
2023-04-22T16:53:37.079Z,22.08
2023-04-22T16:56:05.261Z,21.98
2023-04-22T16:58:33.116Z,21.96
2023-04-22T17:01:00.957Z,21.94
2023-04-22T17:03:30.271Z,21.67
2023-04-22T17:05:58.176Z,21.70
2023-04-22T17:08:26.007Z,21.71
2023-04-22T17:10:53.769Z,21.65
2023-04-22T17:13:21.540Z,21.54
2023-04-22T17:15:49.430Z,21.48
2023-04-22T17:18:17.224Z,21.36
2023-04-22T17:20:46.509Z,21.20
2023-04-22T17:23:14.483Z,21.13
2023-04-22T17:25:42.487Z,21.06
2023-04-22T17:28:11.678Z,20.77
2023-04-22T17:30:39.701Z,20.54
2023-04-22T17:33:07.550Z,20.44
2023-04-22T17:35:35.306Z,20.10
2023-04-22T17:38:04.553Z,20.29
2023-04-22T17:40:32.397Z,20.19
2023-04-22T17:43:00.330Z,20.07
2023-04-22T17:45:28.254Z,20.13
2023-04-22T17:47:56.077Z,20.00
2023-04-22T17:50:23.976Z,20.05
2023-04-22T17:52:51.912Z,20.12
2023-04-22T17:55:21.578Z,19.91
2023-04-22T17:57:49.426Z,19.91
2023-04-22T18:00:18.053Z,19.98
2023-04-22T18:02:46.148Z,19.95
2023-04-22T18:05:14.542Z,19.86
2023-04-22T18:07:42.382Z,19.84
2023-04-22T18:10:11.935Z,19.93
2023-04-22T18:12:41.682Z,19.63
2023-04-22T18:15:09.884Z,19.66
2023-04-22T18:17:38.092Z,19.71
2023-04-22T18:20:17.520Z,19.61
2023-04-22T18:22:47.817Z,19.58
2023-04-22T18:25:15.994Z,19.28
2023-04-22T18:27:45.490Z,19.55
2023-04-22T18:30:13.620Z,19.30
2023-04-22T18:32:41.515Z,19.15
2023-04-22T18:35:10.678Z,19.14
2023-04-22T18:37:38.504Z,19.25
2023-04-22T18:40:08.038Z,19.15
2023-04-22T18:42:35.849Z,19.20
2023-04-22T18:45:07.463Z,19.29
2023-04-22T18:47:35.380Z,19.18
2023-04-22T18:50:03.276Z,19.04
2023-04-22T18:52:31.166Z,19.22
2023-04-22T18:54:59.199Z,19.27
2023-04-22T18:57:27.125Z,19.25
2023-04-22T18:59:55.071Z,19.21
2023-04-22T19:02:24.416Z,19.19
2023-04-22T19:04:54.103Z,19.05
2023-04-22T19:07:22.048Z,19.10
2023-04-22T19:09:49.836Z,19.05
2023-04-22T19:12:19.476Z,19.03
2023-04-22T19:14:48.413Z,18.98
2023-04-22T19:17:16.315Z,18.72
2023-04-22T19:19:46.488Z,18.85
2023-04-22T19:22:14.176Z,18.77
2023-04-22T19:24:42.156Z,18.79
2023-04-22T19:27:12.409Z,18.57
2023-04-22T19:29:41.561Z,18.65
2023-04-22T19:32:11.013Z,18.63
2023-04-22T19:34:39.052Z,18.75
2023-04-22T19:37:08.395Z,18.87
2023-04-22T19:39:36.686Z,18.93
2023-04-22T19:42:04.618Z,18.76
2023-04-22T19:44:32.745Z,18.70
2023-04-22T19:47:00.871Z,18.44
2023-04-22T19:49:31.141Z,18.54
2023-04-22T19:51:58.870Z,18.51
2023-04-22T19:54:30.446Z,18.45
2023-04-22T19:56:59.067Z,18.44
2023-04-22T19:59:31.032Z,18.39
2023-04-22T20:01:59.472Z,18.65
2023-04-22T20:04:28.088Z,18.49
2023-04-22T20:06:57.159Z,18.70
2023-04-22T20:09:26.460Z,18.65
2023-04-22T20:11:55.853Z,18.46
2023-04-22T20:14:24.334Z,18.52
2023-04-22T20:16:52.690Z,18.29
2023-04-22T20:19:20.866Z,18.43
2023-04-22T20:21:49.514Z,18.32
2023-04-22T20:24:19.584Z,18.40
2023-04-22T20:26:49.515Z,18.41
2023-04-22T20:29:19.519Z,18.22
2023-04-22T20:31:47.713Z,18.14
2023-04-22T20:34:15.704Z,18.42
2023-04-22T20:36:43.862Z,18.40
2023-04-22T20:39:14.354Z,18.30
2023-04-22T20:41:43.257Z,18.14
2023-04-22T20:44:11.391Z,18.20
2023-04-22T20:46:40.660Z,18.18
2023-04-22T20:49:08.521Z,18.13
2023-04-22T20:51:36.511Z,18.31
2023-04-22T20:54:06.195Z,18.18
2023-04-22T20:56:37.988Z,17.81
2023-04-22T20:59:06.062Z,17.90
2023-04-22T21:01:34.166Z,17.79
2023-04-22T21:04:04.464Z,17.53
2023-04-22T21:06:34.037Z,17.46
2023-04-22T21:09:02.770Z,17.24
2023-04-22T21:11:31.182Z,17.20
2023-04-22T21:14:00.018Z,17.22
2023-04-22T21:16:29.703Z,17.18
2023-04-22T21:19:00.407Z,17.03
2023-04-22T21:21:33.965Z,17.06
2023-04-22T21:24:02.818Z,16.95
2023-04-22T21:26:31.280Z,17.07
2023-04-22T21:28:59.612Z,16.91
2023-04-22T21:31:28.136Z,17.02
2023-04-22T21:33:56.121Z,17.10
2023-04-22T21:36:25.022Z,17.01
2023-04-22T21:38:54.956Z,16.84
2023-04-22T21:41:23.313Z,16.90
2023-04-22T21:43:51.134Z,16.83
2023-04-22T21:46:19.934Z,16.69
2023-04-22T21:48:47.886Z,16.69
2023-04-22T21:51:15.696Z,16.68
2023-04-22T21:53:44.507Z,16.96
2023-04-22T21:56:13.759Z,16.93
2023-04-22T21:58:41.902Z,16.80
2023-04-22T22:01:09.749Z,16.81
2023-04-22T22:03:38.010Z,16.66
2023-04-22T22:06:06.618Z,16.67
2023-04-22T22:08:34.400Z,16.91
2023-04-22T22:11:07.008Z,16.80
2023-04-22T22:13:37.281Z,16.88
2023-04-22T22:16:05.492Z,16.43
2023-04-22T22:18:33.451Z,16.92
2023-04-22T22:21:01.422Z,16.82
2023-04-22T22:23:29.287Z,16.85
2023-04-22T22:25:57.141Z,16.68
2023-04-22T22:28:25.041Z,16.80
2023-04-22T22:30:59.553Z,16.53
2023-04-22T22:33:27.410Z,16.92
2023-04-22T22:35:55.367Z,16.70
2023-04-22T22:38:23.484Z,16.80
2023-04-22T22:40:51.333Z,16.68
2023-04-22T22:43:19.375Z,15.73
2023-04-22T22:45:47.283Z,16.53
2023-04-22T22:48:16.663Z,16.56
2023-04-22T22:50:46.360Z,16.56
2023-04-22T22:53:14.344Z,16.41
2023-04-22T22:55:42.091Z,16.36
2023-04-22T22:58:10.313Z,16.35
2023-04-22T23:00:38.195Z,16.07
2023-04-22T23:03:06.747Z,16.29
2023-04-22T23:05:36.145Z,16.28
2023-04-22T23:08:04.070Z,16.19
2023-04-22T23:10:32.431Z,16.37
2023-04-22T23:13:00.343Z,16.43
2023-04-22T23:15:28.222Z,16.24
2023-04-22T23:17:56.202Z,16.17
2023-04-22T23:20:25.541Z,16.21
2023-04-22T23:22:55.659Z,16.17
2023-04-22T23:25:24.329Z,16.07
2023-04-22T23:27:52.808Z,16.06
2023-04-22T23:30:21.864Z,16.20
2023-04-22T23:32:52.064Z,16.14
2023-04-22T23:35:20.297Z,16.18
2023-04-22T23:37:48.836Z,16.22
2023-04-22T23:40:18.233Z,15.92
2023-04-22T23:42:46.016Z,15.83
2023-04-22T23:45:13.902Z,15.97
2023-04-22T23:47:42.076Z,15.88
2023-04-22T23:50:10.665Z,16.01
2023-04-22T23:52:41.255Z,15.88
2023-04-22T23:55:11.331Z,15.95
2023-04-22T23:57:41.175Z,15.89
